Accueil
METAR-TAF:

METAR-TAF

Aéroports :

Aéroport international Esenboğa

Ankara Esenboğa, Turquie

latitude: 40-07N, longitude: 032-59E, altitude: 953 m

Observation

Le bulletin a été fait il y a 34 minutes, à 20:50 UTC
Vent 7 kt de nord-est, variant entre nord et est/nord-est
Température 21°C
Humidité 33%
Pression 1015 hPa
Visibilité 10 km ou plus
pas de nuages en-dessous de 1500 mètres et pas de cumulonimbus.

METAR: LTAC 192050Z 05007KT 010V070 CAVOK 21/04 Q1015 NOSIG RMK RWY21L 04008KT RWY03L 05005KT RWY21R 05010KT

Heure: 00:24 (21:24 UTC)

Prévision

Le bulletin a été fait il y a 4 heures et 44 minutes, à 16:40 UTC
Prévision valable du 19 à 18 UTC au 20 à 18 UTC
Vent 2 kt de direction variable
Visibilité 10 km ou plus
pas de nuages en-dessous de 1500 mètres et pas de cumulonimbus.
Evoluant progressivement
du 20 à 06 UTC au 20 à 08 UTC
Nuages épars à une hauteur de 4000 ft

TAF: LTAC 191640Z 1918/2018 VRB02KT CAVOK BECMG 2006/2008 SCT040

Observations et prévisions météorologiques de plus de 4000 aéroports (messages METAR et TAF).

Les stations disponibles sont représentées par des disques jaunes et rouges sur la carte.

Passer la souris dessus pour voir le nom de la station.

Cliquer dessus pour voir les observations et prévisions météorologiques.

Pour changer de carte: cliquez sur les boutons verts avec une croix noire pour zoomer, sur le bouton vert avec un tiret pour effectuer un zoom arrière, ou sur les flèches vertes pour les cartes adjacentes.


METAR-TAF: